createdAt,value
2019-03-19T00:02:25.237Z,8.65
2019-03-19T00:04:53.481Z,9.18
2019-03-19T00:07:22.692Z,7.30
2019-03-19T00:09:50.930Z,7.17
2019-03-19T00:12:19.493Z,6.67
2019-03-19T00:14:48.073Z,6.28
2019-03-19T00:17:16.327Z,5.42
2019-03-19T00:19:44.842Z,5.90
2019-03-19T00:22:13.429Z,6.15
2019-03-19T00:24:42.012Z,5.70
2019-03-19T00:27:10.252Z,6.00
2019-03-19T00:29:57.936Z,5.83
2019-03-19T00:32:26.504Z,5.17
2019-03-19T00:34:54.758Z,5.62
2019-03-19T00:37:23.085Z,5.55
2019-03-19T00:39:53.494Z,6.30
2019-03-19T00:42:21.738Z,5.97
2019-03-19T00:44:49.993Z,5.65
2019-03-19T00:47:18.493Z,5.17
2019-03-19T00:50:07.647Z,5.72
2019-03-19T00:52:36.181Z,6.15
2019-03-19T00:55:06.125Z,5.12
2019-03-19T00:57:34.689Z,5.20
2019-03-19T01:00:04.507Z,5.55
2019-03-19T01:02:32.819Z,5.08
2019-03-19T01:05:01.065Z,5.72
2019-03-19T01:07:29.557Z,6.08
2019-03-19T01:09:57.800Z,6.28
2019-03-19T01:12:26.053Z,5.53
2019-03-19T01:14:54.601Z,5.10
2019-03-19T01:17:22.858Z,6.30
2019-03-19T01:19:51.384Z,5.17
2019-03-19T01:22:19.632Z,5.92
2019-03-19T01:24:47.874Z,4.87
2019-03-19T01:27:16.132Z,5.42
2019-03-19T01:29:45.619Z,5.10
2019-03-19T01:32:14.812Z,5.37
2019-03-19T01:34:43.073Z,5.67
2019-03-19T01:37:11.325Z,6.33
2019-03-19T01:39:39.585Z,6.47
2019-03-19T01:42:08.090Z,5.92
2019-03-19T01:44:36.346Z,5.75
2019-03-19T01:47:05.499Z,6.12
2019-03-19T01:49:33.841Z,6.03
2019-03-19T01:52:02.395Z,5.20
2019-03-19T01:54:30.637Z,5.85
2019-03-19T01:57:01.168Z,6.47
2019-03-19T01:59:29.688Z,5.20
2019-03-19T02:01:57.956Z,6.10
2019-03-19T02:04:26.205Z,6.00
2019-03-19T02:06:55.441Z,5.37
2019-03-19T02:09:43.394Z,6.22
2019-03-19T02:12:11.649Z,6.70
2019-03-19T02:14:40.253Z,6.53
2019-03-19T02:17:08.841Z,6.08
2019-03-19T02:19:37.098Z,7.10
2019-03-19T02:22:06.305Z,6.30
2019-03-19T02:24:34.553Z,6.42
2019-03-19T02:27:02.823Z,7.22
2019-03-19T02:29:31.070Z,7.20
2019-03-19T02:31:59.331Z,6.72
2019-03-19T02:34:27.578Z,5.90
2019-03-19T02:37:33.109Z,6.65
2019-03-19T02:40:01.605Z,6.87
2019-03-19T02:42:30.128Z,6.90
2019-03-19T02:44:59.282Z,7.00
2019-03-19T02:47:27.543Z,7.80
2019-03-19T02:49:56.096Z,7.37
2019-03-19T02:52:24.679Z,6.55
2019-03-19T02:54:52.933Z,7.00
2019-03-19T02:57:21.265Z,7.08
2019-03-19T02:59:50.517Z,7.12
2019-03-19T03:02:18.783Z,6.67
2019-03-19T03:04:47.987Z,7.10
2019-03-19T03:07:16.518Z,6.67
2019-03-19T03:09:44.769Z,6.80
2019-03-19T03:12:13.388Z,6.97
2019-03-19T03:14:41.730Z,6.65
2019-03-19T03:17:10.006Z,6.85
2019-03-19T03:19:39.306Z,6.85
2019-03-19T03:22:07.571Z,6.45
2019-03-19T03:24:35.843Z,6.35
2019-03-19T03:27:05.086Z,6.40
2019-03-19T03:29:33.334Z,6.42
2019-03-19T03:32:01.892Z,5.87
2019-03-19T03:34:31.151Z,7.08
2019-03-19T03:37:00.491Z,6.83
2019-03-19T03:39:28.793Z,6.25
2019-03-19T03:41:57.459Z,6.80
2019-03-19T03:44:26.047Z,6.55
2019-03-19T03:46:55.211Z,6.90
2019-03-19T03:49:23.467Z,5.83
2019-03-19T03:51:51.777Z,5.97
2019-03-19T03:54:20.401Z,6.37
2019-03-19T03:57:01.203Z,6.05
2019-03-19T03:59:18.626Z,7.65
2019-03-19T04:01:46.883Z,6.58
2019-03-19T04:04:15.559Z,11.08
2019-03-19T04:06:44.158Z,13.80
2019-03-19T04:09:13.662Z,11.75
2019-03-19T04:11:44.250Z,10.93
2019-03-19T04:14:12.537Z,19.37
2019-03-19T04:16:40.778Z,21.05
2019-03-19T04:19:10.370Z,24.02
2019-03-19T04:21:38.972Z,26.02
2019-03-19T04:24:10.439Z,31.60
2019-03-19T04:26:38.794Z,27.48
2019-03-19T04:29:07.038Z,22.40
2019-03-19T04:31:35.295Z,15.50
2019-03-19T04:34:03.549Z,14.38
2019-03-19T04:36:32.054Z,11.28
2019-03-19T04:39:00.603Z,10.50
2019-03-19T04:41:29.204Z,11.40
2019-03-19T04:43:57.531Z,11.12
2019-03-19T04:46:31.762Z,10.23
2019-03-19T04:49:00.005Z,10.35
2019-03-19T04:51:28.601Z,10.82
2019-03-19T04:53:57.153Z,9.33
2019-03-19T04:56:25.427Z,9.48
2019-03-19T04:58:54.014Z,9.38
2019-03-19T05:01:22.261Z,9.20
2019-03-19T05:03:50.528Z,9.90
2019-03-19T05:06:19.057Z,8.83
2019-03-19T05:08:48.572Z,8.73
2019-03-19T05:11:16.818Z,9.43
2019-03-19T05:13:45.077Z,9.05
2019-03-19T05:16:13.324Z,10.10
2019-03-19T05:18:41.589Z,10.05
2019-03-19T05:21:09.839Z,11.12
2019-03-19T05:23:40.087Z,8.60
2019-03-19T05:26:09.605Z,11.68
2019-03-19T05:28:37.867Z,11.48
2019-03-19T05:31:06.110Z,9.65
2019-03-19T05:33:34.618Z,10.72
2019-03-19T05:36:03.140Z,8.88
2019-03-19T05:38:35.385Z,9.43
2019-03-19T05:41:03.637Z,12.93
2019-03-19T05:43:31.893Z,13.03
2019-03-19T05:46:00.145Z,9.68
2019-03-19T05:48:28.754Z,8.83
2019-03-19T05:50:57.032Z,8.33
2019-03-19T05:53:26.200Z,8.45
2019-03-19T05:55:54.811Z,8.78
2019-03-19T05:58:23.064Z,8.08
2019-03-19T06:00:51.320Z,8.55
2019-03-19T06:03:19.634Z,8.15
2019-03-19T06:05:47.911Z,10.03
2019-03-19T06:08:16.164Z,8.30
2019-03-19T06:10:44.418Z,8.40
2019-03-19T06:13:14.006Z,8.08
2019-03-19T06:15:42.271Z,11.55
2019-03-19T06:18:10.519Z,8.68
2019-03-19T06:20:39.053Z,10.00
2019-03-19T06:23:08.238Z,8.95
2019-03-19T06:25:36.555Z,9.05
2019-03-19T06:28:05.117Z,6.92
2019-03-19T06:30:33.395Z,8.10
2019-03-19T06:33:01.669Z,8.48
2019-03-19T06:35:29.977Z,9.05
2019-03-19T06:37:58.226Z,7.72
2019-03-19T06:40:26.825Z,8.18
2019-03-19T06:42:55.073Z,8.20
2019-03-19T06:45:23.542Z,8.48
2019-03-19T06:47:51.974Z,7.47
2019-03-19T06:50:21.558Z,8.20
2019-03-19T06:52:56.597Z,8.58
2019-03-19T06:55:25.793Z,8.73
2019-03-19T06:57:54.294Z,8.13
2019-03-19T07:00:23.391Z,7.78
2019-03-19T07:02:52.574Z,8.23
2019-03-19T07:05:21.446Z,7.65
2019-03-19T07:07:49.992Z,7.85
2019-03-19T07:10:21.749Z,7.12
2019-03-19T07:12:52.958Z,7.62
2019-03-19T07:15:22.406Z,7.80
2019-03-19T07:17:51.569Z,8.40
2019-03-19T07:20:22.026Z,8.10
2019-03-19T07:22:51.202Z,9.25
2019-03-19T07:25:19.631Z,9.15
2019-03-19T07:27:48.210Z,8.33
2019-03-19T07:30:23.142Z,8.53
2019-03-19T07:32:51.431Z,7.85
2019-03-19T07:35:20.109Z,7.42
2019-03-19T07:37:48.713Z,7.92
2019-03-19T07:40:17.301Z,8.45
2019-03-19T07:42:45.640Z,7.70
2019-03-19T07:45:17.813Z,7.53
2019-03-19T07:47:46.429Z,8.23
2019-03-19T07:50:16.160Z,6.90
2019-03-19T07:52:44.730Z,6.67
2019-03-19T07:55:13.315Z,7.78
2019-03-19T07:57:41.610Z,6.90
2019-03-19T08:00:21.237Z,8.00
2019-03-19T08:02:49.828Z,7.17
2019-03-19T08:05:18.410Z,7.22
2019-03-19T08:07:46.700Z,7.22
2019-03-19T08:10:18.618Z,6.92
2019-03-19T08:12:46.945Z,7.53
2019-03-19T08:15:21.871Z,6.87
2019-03-19T08:17:50.120Z,7.22
2019-03-19T08:20:19.331Z,7.12
2019-03-19T08:22:47.685Z,9.65
2019-03-19T08:25:18.764Z,7.62
2019-03-19T08:27:47.385Z,7.33
2019-03-19T08:30:17.193Z,7.08
2019-03-19T08:32:46.368Z,6.80
2019-03-19T08:35:14.977Z,7.25
2019-03-19T08:37:43.227Z,7.30
2019-03-19T08:40:17.089Z,6.33
2019-03-19T08:42:45.345Z,7.40
2019-03-19T08:45:15.139Z,6.67
2019-03-19T08:47:43.380Z,6.33
2019-03-19T08:50:17.455Z,6.70
2019-03-19T08:55:13.905Z,5.90
2019-03-19T08:57:42.494Z,5.67
2019-03-19T09:00:16.961Z,5.90
2019-03-19T09:02:45.501Z,6.62
2019-03-19T09:05:14.097Z,5.92
2019-03-19T09:07:42.358Z,6.25
2019-03-19T09:10:14.751Z,6.12
2019-03-19T09:12:43.010Z,6.55
2019-03-19T09:15:12.694Z,6.55
2019-03-19T09:17:40.948Z,6.35
2019-03-19T09:20:14.057Z,5.85
2019-03-19T09:22:42.327Z,6.20
2019-03-19T09:25:11.656Z,6.95
2019-03-19T09:27:40.187Z,6.92
2019-03-19T09:30:21.919Z,6.65
2019-03-19T09:32:50.181Z,6.62
2019-03-19T09:35:18.420Z,6.45
2019-03-19T09:37:57.658Z,6.55
2019-03-19T09:40:17.966Z,6.10
2019-03-19T09:42:46.223Z,5.53
2019-03-19T09:45:18.020Z,7.22
2019-03-19T09:47:46.531Z,5.97
2019-03-19T09:50:23.075Z,5.37
2019-03-19T09:52:51.648Z,5.90
2019-03-19T09:55:20.799Z,5.85
2019-03-19T09:57:49.335Z,5.83
2019-03-19T10:00:21.813Z,5.50
2019-03-19T10:02:50.065Z,5.45
2019-03-19T10:05:19.280Z,5.75
2019-03-19T10:07:47.518Z,5.65
2019-03-19T10:10:23.263Z,5.72
2019-03-19T10:12:52.484Z,4.78
2019-03-19T10:15:20.745Z,4.42
2019-03-19T10:17:49.296Z,4.78
2019-03-19T10:20:22.484Z,4.47
2019-03-19T10:22:50.740Z,4.97
2019-03-19T10:25:19.252Z,4.67
2019-03-19T10:27:47.512Z,4.25
2019-03-19T10:30:38.942Z,5.40
2019-03-19T10:33:07.188Z,5.17
2019-03-19T10:35:35.458Z,4.20
2019-03-19T10:38:04.917Z,4.30
2019-03-19T10:40:33.183Z,4.40
2019-03-19T10:43:01.506Z,4.62
2019-03-19T10:45:29.816Z,5.12
2019-03-19T10:48:05.158Z,4.78
2019-03-19T10:50:33.404Z,4.80
2019-03-19T10:53:01.961Z,4.85
2019-03-19T10:55:30.205Z,4.95
2019-03-19T10:57:58.727Z,5.03
2019-03-19T11:00:27.822Z,5.15
2019-03-19T11:02:56.076Z,5.40
2019-03-19T11:05:24.974Z,4.45
2019-03-19T11:07:53.210Z,4.10
2019-03-19T11:10:21.770Z,4.80
2019-03-19T11:12:50.017Z,4.70
2019-03-19T11:15:25.814Z,3.85
2019-03-19T11:17:54.952Z,4.35
2019-03-19T11:20:23.461Z,3.72
2019-03-19T11:22:51.704Z,3.45
2019-03-19T11:25:22.568Z,3.90
2019-03-19T11:27:50.814Z,3.52
2019-03-19T11:30:23.489Z,4.58
2019-03-19T11:32:52.049Z,3.70
2019-03-19T11:35:20.658Z,3.92
2019-03-19T11:37:49.077Z,3.60
2019-03-19T11:40:18.429Z,3.52
2019-03-19T11:42:47.017Z,4.10
2019-03-19T11:45:17.489Z,3.77
2019-03-19T11:47:45.732Z,3.47
2019-03-19T11:50:19.011Z,3.83
2019-03-19T11:52:47.629Z,3.90
2019-03-19T11:55:16.632Z,3.40
2019-03-19T11:57:44.882Z,4.33
2019-03-19T12:00:39.160Z,3.45
2019-03-19T12:03:15.219Z,3.45
2019-03-19T12:05:37.674Z,3.52
2019-03-19T12:08:06.358Z,3.20
2019-03-19T12:10:34.614Z,3.27
2019-03-19T12:13:02.885Z,3.20
2019-03-19T12:15:31.406Z,3.72
2019-03-19T12:17:59.990Z,3.75
2019-03-19T12:20:28.241Z,3.27
2019-03-19T12:22:56.863Z,3.35
2019-03-19T12:25:25.117Z,3.75
2019-03-19T12:27:53.372Z,3.72
2019-03-19T12:30:25.984Z,3.42
2019-03-19T12:32:52.967Z,3.10
2019-03-19T12:35:21.239Z,3.62
2019-03-19T12:37:49.921Z,3.40
2019-03-19T12:40:42.456Z,3.50
2019-03-19T12:43:11.041Z,3.47
2019-03-19T12:45:39.633Z,3.90
2019-03-19T12:48:07.906Z,3.62
2019-03-19T12:50:36.505Z,3.60
2019-03-19T12:53:05.090Z,3.85
2019-03-19T12:55:33.342Z,3.58
2019-03-19T12:58:01.957Z,3.30
2019-03-19T13:00:34.549Z,3.20
2019-03-19T13:03:00.457Z,3.42
2019-03-19T13:05:29.627Z,5.17
2019-03-19T13:07:58.150Z,3.83
2019-03-19T13:10:26.413Z,3.67
2019-03-19T13:12:54.659Z,4.20
2019-03-19T13:15:22.912Z,5.28
2019-03-19T13:17:51.476Z,4.35
2019-03-19T13:20:21.231Z,4.25
2019-03-19T13:22:49.779Z,3.98
2019-03-19T13:25:24.946Z,3.65
2019-03-19T13:27:53.281Z,3.42
2019-03-19T13:30:29.394Z,3.42
2019-03-19T13:32:57.643Z,3.52
2019-03-19T13:35:26.221Z,3.45
2019-03-19T13:37:54.927Z,3.60
2019-03-19T13:40:24.081Z,3.50
2019-03-19T13:42:52.702Z,3.33
2019-03-19T13:45:22.093Z,3.50
2019-03-19T13:47:50.341Z,3.65
2019-03-19T13:50:20.411Z,3.70
2019-03-19T13:52:48.681Z,3.45
2019-03-19T13:55:32.218Z,3.25
2019-03-19T13:58:00.511Z,3.77
2019-03-19T14:00:28.753Z,3.33
2019-03-19T14:02:59.118Z,3.60
2019-03-19T14:05:27.286Z,3.55
2019-03-19T14:07:55.869Z,3.12
2019-03-19T14:10:24.461Z,3.30
2019-03-19T14:12:52.753Z,2.92
2019-03-19T14:15:27.540Z,3.67
2019-03-19T14:17:56.189Z,2.90
2019-03-19T14:20:24.749Z,3.55
2019-03-19T14:22:53.333Z,2.85
2019-03-19T14:25:21.923Z,2.92
2019-03-19T14:27:51.101Z,2.90
2019-03-19T14:30:20.286Z,2.70
2019-03-19T14:32:48.548Z,2.90
2019-03-19T14:35:16.801Z,2.62
2019-03-19T14:37:45.050Z,2.90
2019-03-19T14:40:20.817Z,3.50
2019-03-19T14:42:49.079Z,3.00
2019-03-19T14:45:17.683Z,3.50
2019-03-19T14:47:46.272Z,3.62
2019-03-19T14:50:20.405Z,3.87
2019-03-19T14:52:48.713Z,5.30
2019-03-19T14:55:17.253Z,4.97
2019-03-19T14:57:45.842Z,8.15
2019-03-19T15:00:19.580Z,4.58
2019-03-19T15:02:48.681Z,6.47
2019-03-19T15:05:16.938Z,7.50
2019-03-19T15:07:45.521Z,11.30
2019-03-19T15:10:21.057Z,5.97
2019-03-19T15:12:49.302Z,3.02
2019-03-19T15:15:20.962Z,2.90
2019-03-19T15:17:49.466Z,3.35
2019-03-19T15:20:25.757Z,3.10
2019-03-19T15:22:54.345Z,3.50
2019-03-19T15:25:22.604Z,3.08
2019-03-19T15:27:50.853Z,2.67
2019-03-19T15:30:19.845Z,3.20
2019-03-19T15:32:48.112Z,3.02
2019-03-19T15:35:16.359Z,3.30
2019-03-19T15:37:44.623Z,2.60
2019-03-19T15:40:16.709Z,3.22
2019-03-19T15:42:45.295Z,3.20
2019-03-19T15:45:30.513Z,3.20
2019-03-19T15:47:58.773Z,2.98
2019-03-19T15:50:28.248Z,3.50
2019-03-19T15:52:56.501Z,3.10
2019-03-19T15:55:24.753Z,3.40
2019-03-19T15:57:53.017Z,3.98
2019-03-19T16:00:21.706Z,3.35
2019-03-19T16:02:49.961Z,3.40
2019-03-19T16:05:18.617Z,2.95
2019-03-19T16:07:46.905Z,3.40
2019-03-19T16:10:17.151Z,2.95
2019-03-19T16:12:45.418Z,3.33
2019-03-19T16:15:14.944Z,3.52
2019-03-19T16:17:43.532Z,3.45
2019-03-19T16:20:13.724Z,3.47
2019-03-19T16:22:41.985Z,3.58
2019-03-19T16:25:10.519Z,3.33
2019-03-19T16:27:39.216Z,3.52
2019-03-19T16:30:14.797Z,4.00
2019-03-19T16:32:43.349Z,3.70
2019-03-19T16:35:12.336Z,3.20
2019-03-19T16:37:40.589Z,3.40
2019-03-19T16:40:19.705Z,3.87
2019-03-19T16:42:47.974Z,3.83
2019-03-19T16:45:18.166Z,4.25
2019-03-19T16:47:46.199Z,15.78
2019-03-19T16:50:19.097Z,7.00
2019-03-19T16:52:47.341Z,3.90
2019-03-19T16:55:16.441Z,3.50
2019-03-19T16:57:44.697Z,3.98
2019-03-19T17:00:16.212Z,4.35
2019-03-19T17:02:44.465Z,3.80
2019-03-19T17:05:14.621Z,4.87
2019-03-19T17:07:42.880Z,4.95
2019-03-19T17:10:23.016Z,6.28
2019-03-19T17:12:51.287Z,7.17
2019-03-19T17:15:19.556Z,6.45
2019-03-19T17:17:47.800Z,9.93
2019-03-19T17:20:17.305Z,14.10
2019-03-19T17:22:45.549Z,12.30
2019-03-19T17:25:16.201Z,8.98
2019-03-19T17:27:44.717Z,10.60
2019-03-19T17:30:17.278Z,7.95
2019-03-19T17:32:45.704Z,8.95
2019-03-19T17:35:13.963Z,7.95
2019-03-19T17:37:42.541Z,8.05
2019-03-19T17:40:12.444Z,6.92
2019-03-19T17:42:40.944Z,6.60
2019-03-19T17:45:14.652Z,7.25
2019-03-19T17:47:42.895Z,6.67
2019-03-19T17:50:19.545Z,6.15
2019-03-19T17:52:50.383Z,4.55
2019-03-19T17:55:19.034Z,3.98
2019-03-19T17:57:47.276Z,4.33
2019-03-19T18:00:18.708Z,7.00
2019-03-19T18:02:46.965Z,6.00
2019-03-19T18:05:15.281Z,5.97
2019-03-19T18:07:43.814Z,6.05
2019-03-19T18:10:13.421Z,4.97
2019-03-19T18:12:41.683Z,4.40
2019-03-19T18:15:17.658Z,4.60
2019-03-19T18:17:45.922Z,5.12
2019-03-19T18:20:15.137Z,5.95
2019-03-19T18:22:43.393Z,4.90
2019-03-19T18:25:16.494Z,5.20
2019-03-19T18:27:44.749Z,5.80
2019-03-19T18:30:20.470Z,6.55
2019-03-19T18:32:49.029Z,5.50
2019-03-19T18:35:17.301Z,5.78
2019-03-19T18:37:45.575Z,8.70
2019-03-19T18:40:17.549Z,9.20
2019-03-19T18:42:45.789Z,11.73
2019-03-19T18:45:20.909Z,18.60
2019-03-19T18:47:49.565Z,14.15
2019-03-19T18:50:24.240Z,8.90
2019-03-19T18:52:52.493Z,9.38
2019-03-19T18:55:20.798Z,7.03
2019-03-19T18:57:49.050Z,6.97
2019-03-19T19:00:17.953Z,24.90
2019-03-19T19:02:50.851Z,25.20
2019-03-19T19:05:19.328Z,12.00
2019-03-19T19:07:47.590Z,15.75
2019-03-19T19:10:16.673Z,11.80
2019-03-19T19:12:44.938Z,10.10
2019-03-19T19:15:40.458Z,10.10
2019-03-19T19:18:09.641Z,10.45
2019-03-19T19:20:37.913Z,9.50
2019-03-19T19:23:06.173Z,10.10
2019-03-19T19:25:34.704Z,8.55
2019-03-19T19:28:04.218Z,10.55
2019-03-19T19:30:33.005Z,11.80
2019-03-19T19:33:02.520Z,11.73
2019-03-19T19:35:32.446Z,12.90
2019-03-19T19:38:03.521Z,11.93
2019-03-19T19:40:32.053Z,13.48
2019-03-19T19:43:00.653Z,15.23
2019-03-19T19:45:29.246Z,15.93
2019-03-19T19:47:57.497Z,15.75
2019-03-19T19:50:26.109Z,19.00
2019-03-19T19:52:54.352Z,21.02
2019-03-19T19:55:22.612Z,38.38
2019-03-19T19:57:50.885Z,109.30
2019-03-19T20:00:23.760Z,34.15
2019-03-19T20:02:52.027Z,48.55
2019-03-19T20:05:20.268Z,22.20
2019-03-19T20:07:48.899Z,18.17
2019-03-19T20:10:18.584Z,15.23
2019-03-19T20:12:46.853Z,20.27
2019-03-19T20:15:15.111Z,20.60
2019-03-19T20:17:43.359Z,18.30
2019-03-19T20:20:13.857Z,19.45
2019-03-19T20:22:44.603Z,20.90
2019-03-19T20:25:12.115Z,20.20
2019-03-19T20:27:41.341Z,18.95
2019-03-19T20:30:34.607Z,16.87
2019-03-19T20:33:04.133Z,16.67
2019-03-19T20:35:33.318Z,20.85
2019-03-19T20:38:03.525Z,21.23
2019-03-19T20:40:32.144Z,19.12
2019-03-19T20:43:00.735Z,22.65
2019-03-19T20:45:31.708Z,20.65
2019-03-19T20:48:01.001Z,19.48
2019-03-19T20:50:30.189Z,14.45
2019-03-19T20:52:58.444Z,15.35
2019-03-19T20:55:26.701Z,15.65
2019-03-19T20:57:54.966Z,16.17
2019-03-19T21:00:23.282Z,15.63
2019-03-19T21:02:51.608Z,18.57
2019-03-19T21:05:21.196Z,18.67
2019-03-19T21:07:49.722Z,14.90
2019-03-19T21:10:23.125Z,13.90
2019-03-19T21:12:51.396Z,16.25
2019-03-19T21:15:29.642Z,12.68
2019-03-19T21:17:58.257Z,12.50
2019-03-19T21:20:26.500Z,11.25
2019-03-19T21:22:55.125Z,11.18
2019-03-19T21:25:23.377Z,9.18
2019-03-19T21:27:51.890Z,8.55
2019-03-19T21:30:21.184Z,9.25
2019-03-19T21:32:49.439Z,8.95
2019-03-19T21:35:21.511Z,8.48
2019-03-19T21:37:50.233Z,9.08
2019-03-19T21:40:18.922Z,10.78
2019-03-19T21:42:47.520Z,9.48
2019-03-19T21:45:21.009Z,9.00
2019-03-19T21:47:49.600Z,9.58
2019-03-19T21:50:25.028Z,9.05
2019-03-19T21:52:53.645Z,10.60
2019-03-19T21:55:21.892Z,10.35
2019-03-19T21:57:50.500Z,10.43
2019-03-19T22:00:23.620Z,10.68
2019-03-19T22:02:51.877Z,11.93
2019-03-19T22:05:20.470Z,11.00
2019-03-19T22:07:48.780Z,12.25
2019-03-19T22:10:20.568Z,10.63
2019-03-19T22:12:49.472Z,10.50
2019-03-19T22:15:20.441Z,11.78
2019-03-19T22:17:49.033Z,11.25
2019-03-19T22:20:17.291Z,13.32
2019-03-19T22:22:45.550Z,12.45
2019-03-19T22:25:14.841Z,12.50
2019-03-19T22:27:43.099Z,13.50
2019-03-19T22:30:17.257Z,13.75
2019-03-19T22:32:45.508Z,13.00
2019-03-19T22:35:14.059Z,12.75
2019-03-19T22:37:42.641Z,11.95
2019-03-19T22:40:17.724Z,12.75
2019-03-19T22:42:46.063Z,12.98
2019-03-19T22:45:19.025Z,12.10
2019-03-19T22:47:47.362Z,11.63
2019-03-19T22:50:16.430Z,13.08
2019-03-19T22:52:44.694Z,14.13
2019-03-19T22:55:14.613Z,15.75
2019-03-19T22:57:42.947Z,18.77
2019-03-19T23:00:28.972Z,17.30
2019-03-19T23:02:57.533Z,15.88
2019-03-19T23:05:25.786Z,18.02
2019-03-19T23:07:54.045Z,18.37
2019-03-19T23:10:22.300Z,20.20
2019-03-19T23:12:50.908Z,20.40
2019-03-19T23:15:19.488Z,19.75
2019-03-19T23:17:47.756Z,17.30
2019-03-19T23:20:16.005Z,17.52
2019-03-19T23:22:44.274Z,17.05
2019-03-19T23:25:12.524Z,17.42
2019-03-19T23:27:41.108Z,17.23
2019-03-19T23:30:18.605Z,15.75
2019-03-19T23:32:46.876Z,14.07
2019-03-19T23:35:15.465Z,16.70
2019-03-19T23:37:44.055Z,16.80
2019-03-19T23:40:14.041Z,16.05
2019-03-19T23:42:42.391Z,15.75
2019-03-19T23:45:11.689Z,15.43
2019-03-19T23:47:39.937Z,20.90
2019-03-19T23:50:11.001Z,17.77
2019-03-19T23:52:39.263Z,17.07
2019-03-19T23:55:08.562Z,15.50
2019-03-19T23:57:37.162Z,17.92
